createdAt,value
2018-05-24T00:00:57.473Z,67.03
2018-05-24T00:01:57.440Z,66.84
2018-05-24T00:03:50.420Z,67.03
2018-05-24T00:04:50.363Z,66.74
2018-05-24T00:06:43.454Z,67.13
2018-05-24T00:07:43.215Z,67.86
2018-05-24T00:09:36.190Z,67.57
2018-05-24T00:10:36.150Z,67.76
2018-05-24T00:12:28.963Z,67.29
2018-05-24T00:13:28.931Z,68.15
2018-05-24T00:15:21.984Z,67.09
2018-05-24T00:16:21.939Z,67.29
2018-05-24T00:18:14.938Z,66.90
2018-05-24T00:19:14.871Z,67.47
2018-05-24T00:21:07.852Z,66.80
2018-05-24T00:22:07.865Z,66.80
2018-05-24T00:24:01.148Z,67.57
2018-05-24T00:25:00.979Z,66.80
2018-05-24T00:26:54.016Z,67.19
2018-05-24T00:27:53.961Z,67.19
2018-05-24T00:29:46.953Z,66.90
2018-05-24T00:30:46.900Z,66.80
2018-05-24T00:32:39.730Z,66.90
2018-05-24T00:33:39.688Z,66.42
2018-05-24T00:35:32.601Z,67.38
2018-05-24T00:36:32.475Z,66.33
2018-05-24T00:38:25.478Z,66.33
2018-05-24T00:39:25.436Z,66.42
2018-05-24T00:41:18.431Z,66.84
2018-05-24T00:42:18.402Z,66.52
2018-05-24T00:44:11.467Z,66.61
2018-05-24T00:45:11.282Z,66.42
2018-05-24T00:47:04.417Z,66.55
2018-05-24T00:48:04.258Z,66.74
2018-05-24T00:49:57.258Z,66.64
2018-05-24T00:50:57.212Z,67.03
2018-05-24T00:52:50.269Z,67.03
2018-05-24T00:53:50.085Z,67.51
2018-05-24T00:55:43.154Z,67.22
2018-05-24T00:56:43.043Z,67.22
2018-05-24T00:58:36.030Z,67.80
2018-05-24T00:59:36.005Z,67.41
2018-05-24T01:01:28.844Z,67.32
2018-05-24T01:02:28.785Z,67.41
2018-05-24T01:04:21.828Z,67.32
2018-05-24T01:05:21.600Z,67.70
2018-05-24T01:07:14.597Z,67.70
2018-05-24T01:08:14.558Z,67.47
2018-05-24T01:10:07.612Z,67.47
2018-05-24T01:11:07.558Z,67.76
2018-05-24T01:13:00.410Z,67.86
2018-05-24T01:14:00.393Z,67.86
2018-05-24T01:15:53.395Z,67.29
2018-05-24T01:16:53.186Z,66.80
2018-05-24T01:18:46.191Z,66.80
2018-05-24T01:19:46.237Z,67.86
2018-05-24T01:21:39.239Z,67.86
2018-05-24T01:22:39.192Z,67.57
2018-05-24T01:24:32.204Z,67.67
2018-05-24T01:25:32.170Z,67.47
2018-05-24T01:27:25.215Z,67.76
2018-05-24T01:28:25.185Z,67.57
2018-05-24T01:30:18.342Z,68.15
2018-05-24T01:31:18.269Z,67.76
2018-05-24T01:33:11.274Z,67.86
2018-05-24T01:34:11.226Z,68.05
2018-05-24T01:36:04.079Z,68.73
2018-05-24T01:37:04.034Z,68.24
2018-05-24T01:38:57.219Z,69.01
2018-05-24T01:39:57.182Z,68.91
2018-05-24T01:41:50.186Z,69.01
2018-05-24T01:42:50.276Z,68.91
2018-05-24T01:44:43.397Z,68.34
2018-05-24T01:45:43.326Z,66.90
2018-05-24T01:47:36.348Z,67.29
2018-05-24T01:48:36.295Z,67.86
2018-05-24T01:50:29.263Z,66.61
2018-05-24T01:51:29.237Z,67.76
2018-05-24T01:53:22.332Z,66.03
2018-05-24T01:54:22.272Z,66.13
2018-05-24T01:56:15.092Z,65.27
2018-05-24T01:57:15.066Z,65.36
2018-05-24T01:59:08.100Z,66.52
2018-05-24T02:00:08.047Z,66.90
2018-05-24T02:02:00.901Z,67.47
2018-05-24T02:03:00.879Z,68.05
2018-05-24T02:04:53.871Z,68.34
2018-05-24T02:05:53.834Z,67.86
2018-05-24T02:07:46.826Z,68.15
2018-05-24T02:08:46.882Z,68.34
2018-05-24T02:10:40.009Z,68.24
2018-05-24T02:11:39.935Z,69.01
2018-05-24T02:13:32.951Z,71.57
2018-05-24T02:14:32.896Z,72.24
2018-05-24T02:16:25.720Z,72.53
2018-05-24T02:17:25.685Z,73.20
2018-05-24T02:19:18.535Z,72.14
2018-05-24T02:20:18.462Z,72.14
2018-05-24T02:22:11.528Z,72.05
2018-05-24T02:23:11.313Z,72.33
2018-05-24T02:25:04.297Z,72.01
2018-05-24T02:26:04.254Z,72.11
2018-05-24T02:27:57.264Z,72.59
2018-05-24T02:28:57.299Z,72.49
2018-05-24T02:30:50.668Z,72.49
2018-05-24T02:31:49.991Z,72.30
2018-05-24T02:33:43.008Z,72.59
2018-05-24T02:34:42.820Z,72.30
2018-05-24T02:36:35.789Z,73.07
2018-05-24T02:37:35.738Z,72.78
2018-05-24T02:39:28.718Z,72.39
2018-05-24T02:40:28.669Z,72.97
2018-05-24T02:42:21.987Z,72.78
2018-05-24T02:43:21.956Z,72.88
2018-05-24T02:45:14.974Z,73.55
2018-05-24T02:46:14.892Z,73.45
2018-05-24T02:48:07.767Z,73.55
2018-05-24T02:49:07.735Z,73.93
2018-05-24T02:51:00.717Z,73.93
2018-05-24T02:52:00.661Z,74.12
2018-05-24T02:53:53.700Z,74.12
2018-05-24T02:54:53.731Z,74.31
2018-05-24T02:56:46.924Z,74.22
2018-05-24T02:57:46.723Z,74.27
2018-05-24T02:59:39.710Z,74.79
2018-05-24T03:00:39.668Z,74.31
2018-05-24T03:02:32.668Z,74.12
2018-05-24T03:03:32.604Z,73.74
2018-05-24T03:05:25.598Z,74.31
2018-05-24T03:06:25.538Z,74.98
2018-05-24T03:08:18.513Z,75.04
2018-05-24T03:09:18.485Z,75.43
2018-05-24T03:11:11.488Z,75.62
2018-05-24T03:12:11.505Z,75.52
2018-05-24T03:14:04.589Z,75.90
2018-05-24T03:15:04.542Z,75.62
2018-05-24T03:16:57.597Z,75.56
2018-05-24T03:17:57.555Z,75.71
2018-05-24T03:19:50.804Z,74.98
2018-05-24T03:20:50.668Z,75.27
2018-05-24T03:22:43.672Z,74.89
2018-05-24T03:23:43.609Z,74.89
2018-05-24T03:25:36.480Z,75.37
2018-05-24T03:26:36.575Z,74.79
2018-05-24T03:28:29.728Z,74.89
2018-05-24T03:29:29.582Z,74.51
2018-05-24T03:31:22.569Z,75.27
2018-05-24T03:32:22.559Z,74.98
2018-05-24T03:34:15.510Z,74.79
2018-05-24T03:35:15.573Z,74.98
2018-05-24T03:37:08.304Z,74.79
2018-05-24T03:38:08.293Z,74.89
2018-05-24T03:40:01.260Z,75.27
2018-05-24T03:41:01.210Z,75.37
2018-05-24T03:42:54.383Z,76.23
2018-05-24T03:43:54.343Z,76.23
2018-05-24T03:45:47.176Z,76.14
2018-05-24T03:46:47.134Z,76.23
2018-05-24T03:48:40.041Z,76.90
2018-05-24T03:49:39.929Z,77.09
2018-05-24T03:51:32.988Z,76.23
2018-05-24T03:52:32.874Z,76.14
2018-05-24T03:54:25.844Z,76.81
2018-05-24T03:55:25.798Z,77.00
2018-05-24T03:57:18.934Z,76.52
2018-05-24T03:58:18.850Z,76.81
2018-05-24T04:00:11.869Z,76.90
2018-05-24T04:01:11.824Z,77.00
2018-05-24T04:03:04.868Z,77.00
2018-05-24T04:04:04.810Z,76.90
2018-05-24T04:05:57.773Z,76.23
2018-05-24T04:06:57.596Z,76.32
2018-05-24T04:08:50.638Z,75.85
2018-05-24T04:09:50.590Z,76.04
2018-05-24T04:11:43.575Z,77.19
2018-05-24T04:12:43.545Z,76.23
2018-05-24T04:14:36.653Z,75.65
2018-05-24T04:15:36.460Z,75.46
2018-05-24T04:17:29.520Z,75.37
2018-05-24T04:18:29.460Z,75.56
2018-05-24T04:20:22.433Z,74.98
2018-05-24T04:21:22.406Z,75.37
2018-05-24T04:23:15.258Z,76.52
2018-05-24T04:24:15.178Z,77.29
2018-05-24T04:26:08.155Z,77.44
2018-05-24T04:27:08.104Z,78.20
2018-05-24T04:29:00.975Z,77.92
2018-05-24T04:30:00.924Z,77.82
2018-05-24T04:31:53.904Z,78.59
2018-05-24T04:32:53.908Z,78.49
2018-05-24T04:34:46.983Z,78.78
2018-05-24T04:35:46.748Z,78.59
2018-05-24T04:37:39.690Z,79.45
2018-05-24T04:38:39.659Z,79.36
2018-05-24T04:40:32.656Z,79.55
2018-05-24T04:41:32.632Z,79.26
2018-05-24T04:43:25.821Z,79.13
2018-05-24T04:44:25.749Z,79.51
2018-05-24T04:46:18.598Z,78.74
2018-05-24T04:47:18.539Z,79.07
2018-05-24T04:49:11.541Z,78.49
2018-05-24T04:50:11.478Z,78.69
2018-05-24T04:52:04.627Z,78.64
2018-05-24T04:53:04.561Z,78.74
2018-05-24T04:54:57.553Z,78.69
2018-05-24T04:55:57.498Z,78.11
2018-05-24T04:57:50.478Z,78.17
2018-05-24T04:58:50.448Z,78.45
2018-05-24T05:00:43.459Z,77.97
2018-05-24T05:01:43.280Z,78.30
2018-05-24T05:03:36.154Z,77.31
2018-05-24T05:04:36.055Z,77.40
2018-05-24T05:06:29.130Z,77.15
2018-05-24T05:07:29.184Z,77.40
2018-05-24T05:09:22.333Z,76.96
2018-05-24T05:10:22.235Z,76.86
2018-05-24T05:12:15.235Z,76.67
2018-05-24T05:13:15.185Z,76.10
2018-05-24T05:15:08.194Z,76.96
2018-05-24T05:16:08.130Z,75.81
2018-05-24T05:18:00.988Z,75.52
2018-05-24T05:19:00.987Z,75.71
2018-05-24T05:20:54.003Z,74.95
2018-05-24T05:21:53.949Z,74.95
2018-05-24T05:23:46.941Z,75.14
2018-05-24T05:24:46.906Z,74.76
2018-05-24T05:26:40.140Z,75.04
2018-05-24T05:27:40.054Z,75.18
2018-05-24T05:29:33.041Z,75.08
2018-05-24T05:30:33.110Z,75.37
2018-05-24T05:32:26.491Z,75.18
2018-05-24T05:33:26.163Z,74.60
2018-05-24T05:35:19.160Z,74.60
2018-05-24T05:36:19.119Z,75.08
2018-05-24T05:38:12.253Z,75.37
2018-05-24T05:39:12.090Z,75.18
2018-05-24T05:41:05.208Z,75.08
2018-05-24T05:42:04.980Z,75.08
2018-05-24T05:43:57.970Z,75.18
2018-05-24T05:44:57.938Z,74.98
2018-05-24T05:46:50.986Z,74.51
2018-05-24T05:47:50.937Z,74.69
2018-05-24T05:49:43.897Z,74.98
2018-05-24T05:50:43.840Z,74.89
2018-05-24T05:52:36.831Z,74.60
2018-05-24T05:53:36.771Z,75.08
2018-05-24T05:55:29.595Z,74.69
2018-05-24T05:56:29.734Z,74.89
2018-05-24T05:58:22.885Z,74.22
2018-05-24T05:59:22.641Z,74.31
2018-05-24T06:01:15.535Z,74.31
2018-05-24T06:02:15.495Z,74.02
2018-05-24T06:04:08.501Z,74.64
2018-05-24T06:05:08.522Z,74.22
2018-05-24T06:07:01.749Z,74.26
2018-05-24T06:08:01.579Z,73.68
2018-05-24T06:09:54.560Z,73.49
2018-05-24T06:10:54.552Z,73.49
2018-05-24T06:12:47.519Z,73.87
2018-05-24T06:13:47.502Z,74.26
2018-05-24T06:15:40.322Z,73.00
2018-05-24T06:16:40.281Z,73.68
2018-05-24T06:18:33.322Z,73.68
2018-05-24T06:19:33.247Z,73.77
2018-05-24T06:21:26.236Z,74.26
2018-05-24T06:22:26.213Z,73.62
2018-05-24T06:24:19.482Z,73.72
2018-05-24T06:25:19.363Z,73.24
2018-05-24T06:27:12.324Z,72.75
2018-05-24T06:28:12.301Z,73.04
2018-05-24T06:30:05.321Z,73.04
2018-05-24T06:31:05.267Z,72.95
2018-05-24T06:32:58.517Z,72.08
2018-05-24T06:33:58.456Z,72.37
2018-05-24T06:35:51.284Z,73.14
2018-05-24T06:36:51.332Z,72.47
2018-05-24T06:38:44.097Z,71.61
2018-05-24T06:39:44.047Z,71.61
2018-05-24T06:41:37.183Z,72.79
2018-05-24T06:42:37.138Z,72.79
2018-05-24T06:44:30.158Z,73.94
2018-05-24T06:45:30.230Z,72.31
2018-05-24T06:47:23.426Z,71.45
2018-05-24T06:48:23.242Z,71.64
2018-05-24T06:50:16.227Z,71.83
2018-05-24T06:51:16.182Z,72.02
2018-05-24T06:53:09.147Z,73.18
2018-05-24T06:54:09.124Z,73.08
2018-05-24T06:56:01.963Z,72.79
2018-05-24T06:57:01.920Z,72.73
2018-05-24T06:58:54.939Z,73.02
2018-05-24T06:59:54.922Z,73.11
2018-05-24T07:01:47.814Z,73.02
2018-05-24T07:02:47.821Z,72.83
2018-05-24T07:04:40.853Z,72.64
2018-05-24T07:05:40.812Z,73.21
2018-05-24T07:07:33.733Z,74.08
2018-05-24T07:08:33.582Z,74.08
2018-05-24T07:10:26.423Z,73.69
2018-05-24T07:11:26.382Z,74.46
2018-05-24T07:13:19.394Z,74.21
2018-05-24T07:14:19.448Z,74.65
2018-05-24T07:16:12.657Z,73.98
2018-05-24T07:17:12.548Z,73.79
2018-05-24T07:19:05.536Z,73.15
2018-05-24T07:20:05.545Z,73.92
2018-05-24T07:21:58.787Z,74.30
2018-05-24T07:22:58.649Z,73.92
2018-05-24T07:24:51.477Z,74.40
2018-05-24T07:25:51.443Z,74.11
2018-05-24T07:27:44.436Z,74.40
2018-05-24T07:28:44.434Z,73.44
2018-05-24T07:30:37.708Z,73.69
2018-05-24T07:31:37.550Z,74.02
2018-05-24T07:33:30.559Z,73.73
2018-05-24T07:34:30.509Z,74.40
2018-05-24T07:36:23.357Z,74.50
2018-05-24T07:37:23.312Z,74.30
2018-05-24T07:39:16.524Z,73.19
2018-05-24T07:40:16.447Z,73.28
2018-05-24T07:42:09.422Z,73.57
2018-05-24T07:43:09.382Z,74.05
2018-05-24T07:45:02.854Z,72.23
2018-05-24T07:46:02.598Z,72.71
2018-05-24T07:47:55.602Z,72.32
2018-05-24T08:04:28.479Z,67.97
2018-05-24T08:04:54.802Z,68.84
2018-05-24T08:06:47.801Z,68.93
2018-05-24T08:07:47.735Z,69.31
2018-05-24T08:09:40.881Z,68.93
2018-05-24T08:10:40.838Z,69.35
2018-05-24T08:12:55.774Z,69.12
2018-05-24T08:13:33.757Z,69.93
2018-05-24T08:15:26.581Z,67.77
2018-05-24T08:16:26.558Z,68.96
2018-05-24T08:18:19.826Z,69.64
2018-05-24T08:19:19.651Z,68.77
2018-05-24T08:21:12.640Z,67.13
2018-05-24T08:22:12.611Z,68.38
2018-05-24T08:24:05.610Z,68.38
2018-05-24T08:25:05.564Z,68.68
2018-05-24T08:26:58.436Z,67.94
2018-05-24T08:27:58.353Z,67.46
2018-05-24T08:32:56.091Z,67.65
2018-05-24T08:33:56.030Z,69.67
2018-05-24T08:35:48.861Z,67.16
2018-05-24T08:36:48.827Z,65.63
2018-05-24T08:38:41.812Z,66.78
2018-05-24T08:39:41.770Z,67.10
2018-05-24T08:41:34.595Z,67.07
2018-05-24T08:42:34.573Z,68.16
2018-05-24T08:44:27.566Z,67.30
2018-05-24T08:45:27.518Z,67.07
2018-05-24T08:47:20.491Z,67.30
2018-05-24T08:48:20.452Z,67.88
2018-05-24T08:50:13.687Z,66.66
2018-05-24T08:52:26.582Z,67.04
2018-05-24T08:53:26.628Z,67.23
2018-05-24T08:55:19.492Z,65.01
2018-05-24T08:56:19.451Z,65.14
2018-05-24T08:58:12.417Z,65.72
2018-05-24T08:59:12.384Z,67.55
2018-05-24T09:01:05.232Z,63.89
2018-05-24T09:02:05.172Z,65.14
2018-05-24T09:03:58.173Z,63.31
2018-05-24T09:04:58.125Z,64.08
2018-05-24T09:06:50.957Z,62.92
2018-05-24T09:07:50.933Z,64.86
2018-05-24T09:09:43.907Z,64.08
2018-05-24T09:10:43.865Z,63.98
2018-05-24T09:12:36.839Z,63.79
2018-05-24T09:13:36.833Z,63.31
2018-05-24T09:15:29.643Z,64.28
2018-05-24T09:16:29.593Z,64.08
2018-05-24T09:18:22.447Z,65.24
2018-05-24T09:19:22.402Z,66.53
2018-05-24T09:21:15.398Z,65.56
2018-05-24T09:22:15.353Z,65.08
2018-05-24T09:24:08.652Z,64.69
2018-05-24T09:25:08.626Z,65.17
2018-05-24T09:27:01.658Z,65.37
2018-05-24T09:28:01.606Z,64.11
2018-05-24T09:29:54.645Z,63.85
2018-05-24T09:30:54.612Z,63.85
2018-05-24T09:32:47.507Z,64.43
2018-05-24T09:33:47.453Z,64.14
2018-05-24T09:35:40.444Z,64.43
2018-05-24T09:37:53.682Z,63.95
2018-05-24T09:38:53.652Z,64.37
2018-05-24T09:40:46.697Z,62.63
2018-05-24T09:41:46.644Z,62.24
2018-05-24T09:43:39.623Z,61.47
2018-05-24T09:44:39.598Z,60.89
2018-05-24T09:46:32.901Z,62.15
2018-05-24T09:47:32.713Z,62.85
2018-05-24T09:49:25.684Z,62.66
2018-05-24T09:50:25.654Z,62.47
2018-05-24T09:52:18.648Z,62.66
2018-05-24T09:53:18.604Z,62.50
2018-05-24T09:55:11.518Z,62.30
2018-05-24T09:56:11.480Z,59.59
2018-05-24T09:58:04.475Z,59.23
2018-05-24T09:59:04.423Z,59.27
2018-05-24T10:00:57.439Z,57.45
2018-05-24T10:01:57.388Z,57.00
2018-05-24T10:03:50.593Z,55.47
2018-05-24T10:04:50.491Z,55.89
2018-05-24T10:06:43.485Z,55.43
2018-05-24T10:07:43.463Z,54.07
2018-05-24T10:09:36.456Z,53.69
2018-05-24T10:10:36.523Z,53.59
2018-05-24T10:12:29.454Z,53.39
2018-05-24T10:13:29.361Z,55.14
2018-05-24T10:15:22.335Z,52.57
2018-05-24T10:16:22.407Z,49.56
2018-05-24T10:18:15.320Z,52.28
2018-05-24T10:19:15.284Z,52.47
2018-05-24T10:21:08.275Z,51.79
2018-05-24T10:22:08.259Z,51.40
2018-05-24T10:24:01.413Z,52.21
2018-05-24T10:25:01.374Z,52.14
2018-05-24T10:26:54.217Z,50.16
2018-05-24T10:27:54.191Z,51.07
2018-05-24T10:29:47.204Z,48.22
2018-05-24T10:30:47.141Z,49.37
2018-05-24T10:32:40.164Z,50.63
2018-05-24T10:33:40.145Z,49.68
2018-05-24T10:35:32.994Z,49.61
2018-05-24T10:36:32.961Z,50.97
2018-05-24T10:38:26.019Z,49.99
2018-05-24T10:39:26.038Z,49.73
2018-05-24T10:41:18.935Z,51.09
2018-05-24T10:42:18.900Z,49.15
2018-05-24T10:44:11.994Z,49.80
2018-05-24T10:45:11.966Z,49.12
2018-05-24T10:47:04.932Z,50.87
2018-05-24T10:48:04.900Z,50.68
2018-05-24T10:49:57.894Z,50.75
2018-05-24T10:50:57.979Z,50.26
2018-05-24T10:52:51.033Z,51.87
2018-05-24T10:53:50.959Z,52.25
2018-05-24T10:55:43.910Z,52.62
2018-05-24T10:56:43.770Z,53.78
2018-05-24T10:58:36.767Z,53.81
2018-05-24T10:59:36.847Z,54.00
2018-05-24T11:01:29.937Z,52.45
2018-05-24T11:02:29.821Z,52.06
2018-05-24T11:04:22.851Z,55.00
2018-05-24T11:05:22.813Z,53.42
2018-05-24T11:07:15.796Z,53.42
2018-05-24T11:08:15.756Z,53.54
2018-05-24T11:10:08.731Z,54.49
2018-05-24T11:11:08.591Z,54.00
2018-05-24T11:13:01.609Z,54.44
2018-05-24T11:14:01.591Z,54.44
2018-05-24T11:15:54.425Z,54.27
2018-05-24T11:16:54.465Z,56.04
2018-05-24T11:18:47.252Z,52.15
2018-05-24T11:19:47.186Z,53.71
2018-05-24T11:21:40.119Z,53.61
2018-05-24T11:22:40.066Z,55.46
2018-05-24T11:24:33.046Z,54.13
2018-05-24T11:25:33.023Z,52.84
2018-05-24T11:27:26.012Z,54.94
2018-05-24T11:28:25.960Z,56.43
2018-05-24T11:30:19.146Z,53.32
2018-05-24T11:31:19.050Z,54.78
2018-05-24T11:33:12.047Z,53.74
2018-05-24T11:34:12.016Z,53.81
2018-05-24T11:36:05.016Z,55.75
2018-05-24T11:37:05.013Z,54.32
2018-05-24T11:38:58.064Z,54.10
2018-05-24T11:39:58.026Z,54.97
2018-05-24T11:41:51.008Z,53.81
2018-05-24T11:42:51.018Z,55.17
2018-05-24T11:44:44.204Z,54.68
2018-05-24T11:45:44.082Z,53.42
2018-05-24T11:47:37.087Z,54.46
2018-05-24T11:48:37.062Z,54.53
2018-05-24T11:50:30.459Z,54.82
2018-05-24T11:51:30.347Z,54.63
2018-05-24T11:53:23.343Z,58.84
2018-05-24T11:54:23.302Z,59.16
2018-05-24T11:56:16.292Z,59.38
2018-05-24T11:57:16.268Z,58.12
2018-05-24T11:59:09.297Z,57.25
2018-05-24T12:00:09.260Z,56.96
2018-05-24T12:02:02.233Z,57.76
2018-05-24T12:03:02.205Z,56.60
2018-05-24T12:04:55.190Z,56.96
2018-05-24T12:05:55.137Z,57.54
2018-05-24T12:07:48.187Z,57.83
2018-05-24T12:08:48.128Z,57.25
2018-05-24T12:10:41.117Z,55.99
2018-05-24T12:11:41.219Z,57.15
2018-05-24T12:13:34.407Z,57.44
2018-05-24T12:14:34.297Z,56.76
2018-05-24T12:16:27.132Z,56.25
2018-05-24T12:17:27.092Z,57.12
2018-05-24T12:19:20.172Z,57.54
2018-05-24T12:20:20.102Z,57.22
2018-05-24T12:22:13.032Z,58.87
2018-05-24T12:23:12.995Z,58.67
2018-05-24T12:25:06.035Z,57.51
2018-05-24T12:26:05.994Z,59.52
2018-05-24T12:27:58.968Z,59.52
2018-05-24T12:28:58.948Z,60.30
2018-05-24T12:30:51.813Z,58.94
2018-05-24T12:31:51.778Z,58.94
2018-05-24T12:33:44.806Z,60.43
2018-05-24T12:34:44.749Z,61.30
2018-05-24T12:36:37.732Z,60.94
2018-05-24T12:37:37.752Z,60.75
2018-05-24T12:39:30.953Z,60.97
2018-05-24T12:40:30.803Z,60.17
2018-05-24T12:42:23.794Z,60.17
2018-05-24T12:43:23.758Z,60.65
2018-05-24T12:46:53.478Z,59.59
2018-05-24T12:47:48.787Z,59.69
2018-05-24T12:49:41.699Z,58.62
2018-05-24T12:50:41.639Z,58.81
2018-05-24T12:52:34.637Z,59.10
2018-05-24T12:53:34.615Z,58.23
2018-05-24T12:55:27.462Z,60.07
2018-05-24T12:56:27.418Z,60.36
2018-05-24T12:58:20.379Z,58.42
2018-05-24T12:59:20.374Z,59.39
2018-05-24T13:01:13.349Z,59.88
2018-05-24T13:02:13.278Z,59.88
2018-05-24T13:04:06.433Z,59.30
2018-05-24T13:05:06.374Z,59.20
2018-05-24T13:06:59.373Z,59.49
2018-05-24T13:07:59.310Z,59.88
2018-05-24T13:09:52.845Z,59.97
2018-05-24T13:10:52.400Z,60.17
2018-05-24T13:12:45.403Z,60.33
2018-05-24T13:13:45.343Z,60.94
2018-05-24T13:15:38.198Z,60.17
2018-05-24T13:16:38.149Z,60.36
2018-05-24T13:18:31.127Z,59.17
2018-05-24T13:19:31.102Z,59.88
2018-05-24T13:21:24.064Z,59.75
2018-05-24T13:22:23.927Z,58.88
2018-05-24T13:24:16.943Z,58.98
2018-05-24T13:25:16.878Z,59.84
2018-05-24T13:27:09.872Z,60.72
2018-05-24T13:28:09.834Z,59.94
2018-05-24T13:30:02.949Z,59.66
2018-05-24T13:31:02.894Z,60.04
2018-05-24T13:32:55.870Z,61.21
2018-05-24T13:33:55.831Z,60.91
2018-05-24T13:35:48.666Z,61.59
2018-05-24T13:36:48.650Z,61.01
2018-05-24T13:38:41.932Z,61.21
2018-05-24T13:39:41.900Z,60.24
2018-05-24T13:41:34.748Z,61.30
2018-05-24T13:42:34.719Z,61.59
2018-05-24T13:44:27.691Z,61.76
2018-05-24T13:45:27.642Z,61.49
2018-05-24T13:47:20.484Z,61.85
2018-05-24T13:48:20.429Z,61.08
2018-05-24T13:50:13.437Z,61.69
2018-05-24T13:51:13.413Z,62.27
2018-05-24T13:53:06.385Z,61.21
2018-05-24T13:54:06.353Z,62.17
2018-05-24T13:55:59.496Z,62.14
2018-05-24T13:56:59.447Z,62.66
2018-05-24T13:58:52.454Z,62.56
2018-05-24T13:59:52.385Z,62.95
2018-05-24T14:01:45.464Z,62.75
2018-05-24T14:02:45.344Z,62.75
2018-05-24T14:04:38.177Z,62.95
2018-05-24T14:05:38.132Z,61.49
2018-05-24T14:07:31.122Z,62.56
2018-05-24T14:08:31.091Z,62.75
2018-05-24T14:10:24.599Z,62.37
2018-05-24T14:11:24.064Z,61.85
2018-05-24T14:13:18.239Z,62.75
2018-05-24T14:14:18.196Z,61.79
2018-05-24T14:16:11.608Z,62.27
2018-05-24T14:17:11.289Z,62.56
2018-05-24T14:19:04.494Z,61.98
2018-05-24T14:20:04.416Z,61.11
2018-05-24T14:21:57.248Z,62.46
2018-05-24T14:22:57.210Z,61.56
2018-05-24T14:24:50.225Z,62.85
2018-05-24T14:25:50.166Z,62.66
2018-05-24T14:27:43.013Z,61.24
2018-05-24T14:28:42.982Z,62.40
2018-05-24T14:30:36.015Z,61.26
2018-05-24T14:31:35.917Z,60.20
2018-05-24T14:33:28.909Z,60.42
2018-05-24T14:34:28.971Z,60.45
2018-05-24T14:36:22.198Z,58.57
2018-05-24T14:37:21.997Z,54.58
2018-05-24T14:39:14.845Z,55.58
2018-05-24T14:40:14.811Z,55.64
2018-05-24T14:42:07.830Z,52.84
2018-05-24T14:43:07.799Z,52.38
2018-05-24T14:45:01.056Z,50.56
2018-05-24T14:46:00.890Z,47.95
2018-05-24T14:47:53.702Z,48.24
2018-05-24T14:48:53.686Z,48.24
2018-05-24T14:50:46.681Z,48.05
2018-05-24T14:51:46.671Z,48.63
2018-05-24T14:53:39.783Z,48.17
2018-05-24T14:54:39.757Z,48.56
2018-05-24T14:56:32.617Z,47.00
2018-05-24T14:57:32.583Z,48.63
2018-05-24T14:59:25.669Z,48.29
2018-05-24T15:00:25.638Z,47.61
2018-05-24T15:02:18.487Z,47.53
2018-05-24T15:03:18.463Z,47.71
2018-05-24T15:05:11.313Z,47.31
2018-05-24T15:06:11.268Z,46.92
2018-05-24T15:08:04.277Z,47.34
2018-05-24T15:09:04.229Z,46.26
2018-05-24T15:10:57.675Z,45.65
2018-05-24T15:11:57.528Z,46.17
2018-05-24T15:13:50.392Z,46.26
2018-05-24T15:14:50.361Z,45.56
2018-05-24T15:16:43.337Z,46.73
2018-05-24T15:17:43.319Z,45.87
2018-05-24T15:19:36.183Z,48.24
2018-05-24T15:20:36.132Z,48.24
2018-05-24T15:22:29.123Z,48.05
2018-05-24T15:23:29.083Z,48.51
2018-05-24T15:25:21.909Z,49.58
2018-05-24T15:26:21.896Z,49.02
2018-05-24T15:28:14.967Z,48.46
2018-05-24T15:29:14.909Z,47.68
2018-05-24T15:31:07.928Z,46.44
2018-05-24T15:32:07.898Z,47.02
2018-05-24T15:34:00.896Z,48.00
2018-05-24T15:35:00.854Z,46.66
2018-05-24T15:36:54.093Z,45.41
2018-05-24T15:37:53.973Z,46.19
2018-05-24T15:39:47.013Z,45.29
2018-05-24T15:40:47.029Z,44.68
2018-05-24T15:42:39.994Z,46.53
2018-05-24T15:43:39.960Z,47.29
2018-05-24T15:45:32.963Z,47.09
2018-05-24T15:46:32.818Z,47.39
2018-05-24T15:48:25.864Z,47.85
2018-05-24T15:49:25.788Z,48.34
2018-05-24T15:51:18.775Z,48.34
2018-05-24T15:52:18.758Z,48.95
2018-05-24T15:54:11.719Z,48.27
2018-05-24T15:55:11.589Z,47.09
2018-05-24T15:57:04.441Z,46.31
2018-05-24T15:58:04.399Z,46.24
2018-05-24T15:59:57.426Z,46.56
2018-05-24T16:00:57.549Z,46.17
2018-05-24T16:02:50.369Z,45.00
2018-05-24T16:03:50.336Z,46.17
2018-05-24T16:05:43.324Z,44.43
2018-05-24T16:06:43.150Z,44.24
2018-05-24T16:08:36.168Z,43.67
2018-05-24T16:09:36.133Z,43.77
2018-05-24T16:11:29.184Z,44.09
2018-05-24T16:12:29.116Z,42.22
2018-05-24T16:14:22.116Z,43.08
2018-05-24T16:15:21.968Z,43.48
2018-05-24T16:17:14.960Z,43.18
2018-05-24T16:18:14.945Z,42.58
2018-05-24T16:20:08.122Z,43.36
2018-05-24T16:21:07.947Z,43.55
2018-05-24T16:23:00.809Z,44.41
2018-05-24T16:24:00.782Z,44.12
2018-05-24T16:25:53.685Z,44.87
2018-05-24T16:26:53.608Z,44.87
2018-05-24T16:28:46.595Z,46.70
2018-05-24T16:29:46.566Z,46.31
2018-05-24T16:31:39.417Z,46.22
2018-05-24T16:32:39.481Z,47.07
2018-05-24T16:34:32.224Z,47.15
2018-05-24T16:35:32.201Z,48.10
2018-05-24T16:37:25.205Z,48.39
2018-05-24T16:38:25.167Z,49.07
2018-05-24T16:40:18.151Z,49.44
2018-05-24T16:41:18.122Z,49.61
2018-05-24T16:43:11.366Z,50.19
2018-05-24T16:44:11.270Z,50.85
2018-05-24T16:46:04.118Z,51.33
2018-05-24T16:47:04.066Z,52.28
2018-05-24T16:48:57.156Z,53.06
2018-05-24T16:49:57.112Z,53.45
2018-05-24T16:51:50.017Z,53.42
2018-05-24T16:52:49.986Z,53.45
2018-05-24T16:54:42.953Z,54.10
2018-05-24T16:55:42.927Z,54.78
2018-05-24T16:57:35.945Z,54.68
2018-05-24T16:58:35.917Z,53.71
2018-05-24T17:00:29.063Z,54.66
2018-05-24T17:01:29.005Z,54.75
2018-05-24T17:03:22.011Z,56.30
2018-05-24T17:04:21.948Z,56.11
2018-05-24T17:06:14.788Z,56.40
2018-05-24T17:07:14.767Z,56.30
2018-05-24T17:09:07.948Z,55.92
2018-05-24T17:10:07.858Z,56.01
2018-05-24T17:12:00.713Z,55.92
2018-05-24T17:13:00.667Z,55.82
2018-05-24T17:14:53.656Z,56.30
2018-05-24T17:15:53.643Z,56.28
2018-05-24T17:17:46.747Z,57.06
2018-05-24T17:18:46.758Z,57.80
2018-05-24T17:20:39.736Z,58.51
2018-05-24T17:21:39.672Z,57.64
2018-05-24T17:23:33.135Z,57.54
2018-05-24T17:24:32.474Z,57.54
2018-05-24T17:26:25.793Z,59.06
2018-05-24T17:27:25.779Z,59.91
2018-05-24T17:29:18.773Z,60.10
2018-05-24T17:30:18.722Z,60.30
2018-05-24T17:32:11.887Z,60.20
2018-05-24T17:33:11.799Z,60.88
2018-05-24T17:35:04.791Z,60.88
2018-05-24T17:36:04.746Z,61.07
2018-05-24T17:37:57.741Z,61.72
2018-05-24T17:38:57.723Z,61.24
2018-05-24T17:40:50.790Z,62.20
2018-05-24T17:41:50.707Z,62.30
2018-05-24T17:43:43.698Z,61.79
2018-05-24T17:44:43.640Z,63.04
2018-05-24T17:46:36.598Z,63.14
2018-05-24T17:47:36.577Z,62.95
2018-05-24T17:49:29.616Z,63.89
2018-05-24T17:50:29.570Z,63.69
2018-05-24T17:52:22.554Z,64.53
2018-05-24T17:53:22.549Z,65.20
2018-05-24T17:55:15.489Z,65.59
2018-05-24T17:56:15.460Z,64.92
2018-05-24T17:58:08.414Z,66.27
2018-05-24T17:59:08.297Z,65.69
2018-05-24T18:01:01.299Z,66.05
2018-05-24T18:02:01.257Z,65.85
2018-05-24T18:03:54.239Z,66.82
2018-05-24T18:04:54.203Z,66.72
2018-05-24T18:06:47.319Z,67.69
2018-05-24T18:07:47.256Z,66.82
2018-05-24T18:09:40.078Z,67.01
2018-05-24T18:10:40.068Z,67.27
2018-05-24T18:12:33.067Z,67.94
2018-05-24T18:13:33.014Z,67.94
2018-05-24T18:15:25.983Z,68.33
2018-05-24T18:16:25.922Z,68.04
2018-05-24T18:18:18.903Z,68.10
2018-05-24T18:19:18.874Z,68.14
2018-05-24T18:21:11.917Z,68.59
2018-05-24T18:22:11.854Z,68.98
2018-05-24T18:24:05.094Z,68.88
2018-05-24T18:25:04.918Z,69.17
2018-05-24T18:26:58.487Z,69.84
2018-05-24T18:27:57.878Z,69.26
2018-05-24T18:29:51.003Z,69.62
2018-05-24T18:30:50.959Z,69.23
2018-05-24T18:32:43.943Z,69.81
2018-05-24T18:33:43.910Z,70.10
2018-05-24T18:35:36.875Z,70.10
2018-05-24T18:36:36.910Z,70.20
2018-05-24T18:38:30.104Z,70.39
2018-05-24T18:39:29.963Z,70.94
2018-05-24T18:41:22.934Z,70.84
2018-05-24T18:42:22.889Z,70.64
2018-05-24T18:44:15.913Z,71.70
2018-05-24T18:45:15.843Z,71.61
2018-05-24T18:47:08.675Z,71.61
2018-05-24T18:48:08.660Z,72.19
2018-05-24T18:50:01.638Z,71.51
2018-05-24T18:51:01.591Z,72.09
2018-05-24T18:52:54.559Z,72.09
2018-05-24T18:53:54.578Z,71.70